Ampton, United Kingdom
Current Conditions -  °F | °C
As of 5:58 PM on Thursday 30 Oct 2014 (Local Time) from EGUL Reporting Station
Broken Clouds Broken Clouds  
Wind Chill: 60°   Ceiling: 7500
Heat Index: 60°   Visibility: 6mi
Dew Point: 60°   Wind: 7mph
Humidity: 100%   Direction: 160°SSE
Pressure: 30.06"   Gusts: NA
Location:  52.33°N, 0.85°E
Report Text: EGUL 301758Z AUTO 16006KT 9999 BKN075 16/16 A3006 RMK AO2 SLP182 60000 T01560156 10179 20150 53003
Loading
Personal Weather Stations






























Interactive Weather Map
Tropical Storm Tracking
New forecast layout! Learn more

10-Day Weather Forecast

Advertisements
Track Severe Weather on mobile